createdAt,value
2023-02-24T00:00:51.421Z,8.53
2023-02-24T00:05:52.951Z,10.70
2023-02-24T00:10:54.291Z,8.30
2023-02-24T00:16:05.127Z,10.03
2023-02-24T00:21:11.067Z,6.33
2023-02-24T00:26:13.051Z,10.97
2023-02-24T00:31:15.990Z,7.30
2023-02-24T00:36:23.917Z,10.77
2023-02-24T00:41:29.260Z,10.07
2023-02-24T00:46:31.213Z,5.13
2023-02-24T00:51:36.858Z,5.33
2023-02-24T00:56:38.286Z,12.83
2023-02-24T01:01:40.113Z,6.33
2023-02-24T01:06:43.558Z,11.03
2023-02-24T01:12:04.288Z,9.53
2023-02-24T01:17:06.670Z,9.73
2023-02-24T01:22:10.032Z,11.30
2023-02-24T01:27:12.762Z,10.43
2023-02-24T01:32:17.030Z,12.03
2023-02-24T01:37:19.464Z,8.43
2023-02-24T01:42:21.566Z,11.13
2023-02-24T01:47:23.095Z,7.20
2023-02-24T01:52:26.528Z,8.63
2023-02-24T01:57:29.840Z,11.30
2023-02-24T02:02:31.262Z,4.33
2023-02-24T02:07:32.917Z,10.17
2023-02-24T02:12:44.036Z,14.37
2023-02-24T02:17:56.661Z,9.50
2023-02-24T02:23:21.730Z,11.02
2023-02-24T02:28:42.112Z,7.37
2023-02-24T02:34:01.491Z,6.03
2023-02-24T02:39:21.778Z,6.57
2023-02-24T02:44:36.413Z,9.20
2023-02-24T02:49:40.471Z,11.57
2023-02-24T02:54:51.031Z,6.53
2023-02-24T02:59:59.041Z,15.57
2023-02-24T03:05:02.166Z,9.47
2023-02-24T03:10:10.690Z,8.67
2023-02-24T03:15:14.430Z,8.40
2023-02-24T03:20:22.479Z,9.97
2023-02-24T03:25:25.613Z,7.10
2023-02-24T03:30:30.133Z,8.50
2023-02-24T03:35:34.325Z,7.57
2023-02-24T03:40:38.891Z,6.25
2023-02-24T03:45:40.941Z,6.20
2023-02-24T03:50:42.490Z,10.80
2023-02-24T03:55:43.862Z,7.90
2023-02-24T04:00:45.177Z,15.07
2023-02-24T04:05:52.062Z,8.87
2023-02-24T04:10:58.426Z,6.27
2023-02-24T04:16:01.952Z,6.93
2023-02-24T04:21:04.349Z,9.77
2023-02-24T04:26:06.494Z,12.57
2023-02-24T04:31:11.157Z,7.00
2023-02-24T04:36:12.896Z,7.40
2023-02-24T04:41:21.494Z,8.20
2023-02-24T04:46:23.449Z,5.10
2023-02-24T04:51:24.959Z,10.80
2023-02-24T04:56:26.312Z,6.93
2023-02-24T05:01:27.681Z,7.77
2023-02-24T05:06:29.014Z,10.33
2023-02-24T05:11:34.822Z,13.97
2023-02-24T05:16:37.685Z,20.53
2023-02-24T05:21:39.100Z,13.33
2023-02-24T05:26:43.496Z,13.70
2023-02-24T05:31:45.718Z,16.02
2023-02-24T05:36:49.064Z,12.23
2023-02-24T05:41:50.951Z,23.37
2023-02-24T05:46:58.251Z,15.70
2023-02-24T05:52:02.626Z,11.80
2023-02-24T05:57:14.091Z,15.50
2023-02-24T06:02:16.452Z,9.73
2023-02-24T06:07:20.789Z,12.20
2023-02-24T06:12:24.042Z,12.90
2023-02-24T06:17:27.705Z,12.15
2023-02-24T06:22:29.184Z,10.57
2023-02-24T06:27:30.606Z,16.50
2023-02-24T06:32:32.090Z,10.10
2023-02-24T06:37:35.739Z,12.87
2023-02-24T06:42:39.148Z,12.20
2023-02-24T06:47:42.962Z,16.03
2023-02-24T06:52:45.980Z,16.77
2023-02-24T06:57:50.005Z,10.10
2023-02-24T07:02:51.367Z,8.60
2023-02-24T07:07:52.938Z,19.07
2023-02-24T07:12:54.701Z,15.33
2023-02-24T07:17:56.136Z,10.70
2023-02-24T07:22:57.566Z,8.33
2023-02-24T07:28:01.889Z,7.60
2023-02-24T07:33:04.103Z,4.80
2023-02-24T07:38:05.636Z,3.83
2023-02-24T07:43:07.123Z,5.13
2023-02-24T07:48:10.922Z,5.73
2023-02-24T07:53:12.282Z,3.77
2023-02-24T07:58:13.777Z,7.90
2023-02-24T08:03:15.278Z,3.43
2023-02-24T08:08:21.064Z,11.13
2023-02-24T08:13:22.472Z,5.50
2023-02-24T08:18:23.901Z,9.80
2023-02-24T08:23:25.678Z,12.20
2023-02-24T08:28:27.376Z,13.67
2023-02-24T08:33:30.205Z,14.57
2023-02-24T08:38:44.839Z,11.37
2023-02-24T08:48:55.474Z,16.53
2023-02-24T08:54:17.017Z,20.73
2023-02-24T08:59:37.387Z,20.23
2023-02-24T09:04:38.941Z,15.63
2023-02-24T09:09:42.532Z,14.02
2023-02-24T09:14:44.012Z,23.70
2023-02-24T09:19:46.648Z,19.55
2023-02-24T09:24:51.096Z,31.02
2023-02-24T09:34:53.989Z,23.17
2023-02-24T09:40:18.650Z,18.88
2023-02-24T09:45:33.005Z,26.40
2023-02-24T09:51:02.047Z,19.20
2023-02-24T09:56:07.486Z,26.67
2023-02-24T10:01:21.534Z,25.98
2023-02-24T10:11:34.040Z,28.05
2023-02-24T10:16:41.615Z,28.10
2023-02-24T10:21:49.465Z,33.20
2023-02-24T10:27:00.710Z,22.58
2023-02-24T10:32:31.622Z,19.10
2023-02-24T10:37:34.224Z,14.20
2023-02-24T10:42:37.635Z,15.93
2023-02-24T10:47:44.420Z,23.25
2023-02-24T10:52:57.876Z,18.45
2023-02-24T10:58:06.592Z,22.60
2023-02-24T11:03:10.660Z,17.88
2023-02-24T11:08:35.947Z,22.42
2023-02-24T11:13:56.193Z,22.38
2023-02-24T11:18:57.854Z,14.75
2023-02-24T11:24:02.703Z,18.88
2023-02-24T11:29:22.792Z,19.77
2023-02-24T11:34:30.023Z,18.60
2023-02-24T11:39:45.692Z,20.10
2023-02-24T11:44:54.018Z,17.48
2023-02-24T11:50:04.817Z,19.92
2023-02-24T11:55:14.281Z,20.17
2023-02-24T12:00:15.864Z,21.58
2023-02-24T12:05:23.556Z,26.77
2023-02-24T12:10:27.614Z,21.63
2023-02-24T12:15:43.685Z,19.85
2023-02-24T12:20:49.882Z,10.23
2023-02-24T12:26:06.780Z,12.32
2023-02-24T12:31:14.355Z,9.07
2023-02-24T12:36:38.835Z,11.93
2023-02-24T12:41:46.342Z,8.38
2023-02-24T12:46:54.339Z,8.82
2023-02-24T12:51:58.605Z,16.50
2023-02-24T13:02:05.564Z,17.55
2023-02-24T13:07:22.314Z,20.75
2023-02-24T13:12:27.277Z,15.52
2023-02-24T13:17:29.575Z,10.60
2023-02-24T13:22:32.292Z,13.45
2023-02-24T13:27:35.233Z,8.93
2023-02-24T13:32:38.466Z,5.88
2023-02-24T13:37:40.403Z,7.68
2023-02-24T13:42:42.318Z,5.25
2023-02-24T13:48:02.964Z,8.27
2023-02-24T13:53:13.821Z,6.88
2023-02-24T13:58:15.149Z,3.72
2023-02-24T14:03:21.478Z,5.03
2023-02-24T14:08:43.302Z,9.57
2023-02-24T14:13:50.095Z,8.10
2023-02-24T14:18:52.866Z,11.05
2023-02-24T14:24:01.500Z,6.18
2023-02-24T14:29:03.377Z,9.50
2023-02-24T14:34:08.967Z,5.78
2023-02-24T14:39:19.586Z,12.73
2023-02-24T14:44:25.544Z,12.85
2023-02-24T14:49:30.862Z,9.27
2023-02-24T14:54:38.490Z,9.68
2023-02-24T14:59:42.812Z,11.48
2023-02-24T15:04:44.685Z,10.82
2023-02-24T15:09:47.377Z,9.10
2023-02-24T15:14:52.667Z,20.70
2023-02-24T15:19:54.751Z,16.38
2023-02-24T15:25:10.797Z,16.45
2023-02-24T15:30:25.785Z,12.63
2023-02-24T15:35:27.249Z,12.73
2023-02-24T15:40:29.284Z,16.73
2023-02-24T15:45:35.480Z,12.20
2023-02-24T15:50:37.768Z,14.85
2023-02-24T15:55:41.135Z,22.95
2023-02-24T16:00:43.020Z,10.60
2023-02-24T16:05:44.522Z,13.10
2023-02-24T16:10:46.151Z,15.18
2023-02-24T16:15:48.344Z,16.25
2023-02-24T16:20:54.706Z,14.52
2023-02-24T16:25:57.754Z,17.90
2023-02-24T16:30:59.637Z,17.75
2023-02-24T16:36:01.205Z,13.77
2023-02-24T16:41:03.097Z,18.08
2023-02-24T16:46:05.987Z,20.60
2023-02-24T16:51:08.251Z,20.75
2023-02-24T16:56:09.826Z,18.40
2023-02-24T17:01:16.058Z,16.60
2023-02-24T17:06:17.659Z,17.27
2023-02-24T17:11:20.742Z,23.10
2023-02-24T17:16:22.529Z,21.02
2023-02-24T17:21:24.937Z,16.00
2023-02-24T17:26:26.300Z,13.60
2023-02-24T17:31:31.537Z,14.93
2023-02-24T17:36:33.301Z,20.45
2023-02-24T17:41:35.514Z,24.53
2023-02-24T17:46:36.958Z,16.60
2023-02-24T17:51:38.444Z,20.67
2023-02-24T17:56:39.863Z,14.33
2023-02-24T18:01:41.231Z,18.98
2023-02-24T18:06:43.771Z,21.87
2023-02-24T18:11:45.847Z,28.23
2023-02-24T18:16:47.252Z,33.30
2023-02-24T18:21:48.651Z,18.30
2023-02-24T18:26:50.006Z,22.30
2023-02-24T18:31:51.601Z,24.43
2023-02-24T18:36:53.226Z,17.03
2023-02-24T18:41:54.726Z,18.70
2023-02-24T18:46:56.140Z,15.48
2023-02-24T18:51:59.632Z,17.80
2023-02-24T18:57:01.217Z,10.20
2023-02-24T19:02:03.204Z,3.95
2023-02-24T19:07:05.308Z,7.47
2023-02-24T19:12:06.703Z,7.07
2023-02-24T19:17:08.115Z,1.42
2023-02-24T19:22:09.498Z,3.58
2023-02-24T19:27:10.906Z,4.37
2023-02-24T19:32:12.466Z,3.45
2023-02-24T19:37:14.066Z,5.83
2023-02-24T19:42:15.416Z,1.93
2023-02-24T19:47:16.992Z,2.13
2023-02-24T19:52:18.486Z,7.80
2023-02-24T19:57:19.939Z,7.03
2023-02-24T20:02:21.336Z,4.60
2023-02-24T20:07:22.805Z,4.73
2023-02-24T20:12:24.325Z,3.23
2023-02-24T20:17:25.798Z,1.40
2023-02-24T20:22:27.205Z,2.73
2023-02-24T20:27:28.643Z,4.63
2023-02-24T20:32:30.134Z,3.20
2023-02-24T20:37:31.580Z,2.37
2023-02-24T20:42:32.970Z,1.63
2023-02-24T20:47:34.325Z,3.43
2023-02-24T20:52:37.616Z,1.57
2023-02-24T20:57:39.132Z,2.97
2023-02-24T21:02:41.153Z,1.13
2023-02-24T21:07:42.583Z,0.87
2023-02-24T21:12:44.010Z,2.83
2023-02-24T21:17:45.376Z,2.20
2023-02-24T21:22:46.882Z,2.47
2023-02-24T21:27:48.438Z,3.07
2023-02-24T21:32:49.874Z,1.23
2023-02-24T21:37:51.275Z,1.80
2023-02-24T21:42:52.644Z,1.97
2023-02-24T21:47:54.160Z,4.70
2023-02-24T21:52:55.905Z,2.60
2023-02-24T21:57:57.379Z,2.40
2023-02-24T22:02:59.214Z,3.00
2023-02-24T22:08:00.583Z,4.03
2023-02-24T22:13:01.990Z,4.90
2023-02-24T22:18:03.492Z,4.07
2023-02-24T22:23:04.850Z,3.23
2023-02-24T22:28:06.232Z,4.17
2023-02-24T22:33:07.655Z,3.30
2023-02-24T22:38:08.991Z,2.80
2023-02-24T22:43:10.501Z,5.03
2023-02-24T22:48:11.960Z,5.30
2023-02-24T22:53:13.397Z,5.03
2023-02-24T22:58:15.037Z,3.80
2023-02-24T23:03:17.651Z,5.50
2023-02-24T23:08:18.994Z,3.97
2023-02-24T23:13:20.884Z,6.00
2023-02-24T23:18:22.240Z,2.53
2023-02-24T23:23:23.638Z,3.37
2023-02-24T23:28:25.608Z,1.60
2023-02-24T23:33:27.045Z,3.33
2023-02-24T23:38:28.452Z,4.50
2023-02-24T23:43:29.866Z,3.50
2023-02-24T23:48:31.287Z,1.00
2023-02-24T23:53:36.452Z,2.27
2023-02-24T23:58:37.833Z,3.37
